sensor_id;sensor_type;location;lat;lon;timestamp;pressure;altitude;pressure_sealevel;temperature;humidity
47080;BME280;33067;49.296;14.470;2023-04-01T00:01:24;95472.43;;;11.86;41.29
47080;BME280;33067;49.296;14.470;2023-04-01T00:03:49;95476.14;;;11.52;41.88
47080;BME280;33067;49.296;14.470;2023-04-01T00:06:16;95474.24;;;11.89;41.83
47080;BME280;33067;49.296;14.470;2023-04-01T00:08:39;95473.35;;;11.80;41.66
47080;BME280;33067;49.296;14.470;2023-04-01T00:11:05;95470.49;;;11.44;42.36
47080;BME280;33067;49.296;14.470;2023-04-01T00:13:30;95471.85;;;11.98;41.25
47080;BME280;33067;49.296;14.470;2023-04-01T00:15:56;95470.85;;;11.77;41.69
47080;BME280;33067;49.296;14.470;2023-04-01T00:18:21;95472.01;;;11.83;41.73
47080;BME280;33067;49.296;14.470;2023-04-01T00:20:48;95474.30;;;12.02;41.42
47080;BME280;33067;49.296;14.470;2023-04-01T00:23:11;95476.07;;;11.99;41.63
47080;BME280;33067;49.296;14.470;2023-04-01T00:25:36;95471.08;;;11.80;41.69
47080;BME280;33067;49.296;14.470;2023-04-01T00:28:02;95469.98;;;11.96;41.55
47080;BME280;33067;49.296;14.470;2023-04-01T00:30:27;95466.72;;;12.13;41.42
47080;BME280;33067;49.296;14.470;2023-04-01T00:32:53;95462.80;;;12.46;41.23
47080;BME280;33067;49.296;14.470;2023-04-01T00:35:18;95460.52;;;12.15;41.31
47080;BME280;33067;49.296;14.470;2023-04-01T00:37:43;95462.02;;;12.21;41.07
47080;BME280;33067;49.296;14.470;2023-04-01T00:40:22;95459.44;;;12.17;41.08
47080;BME280;33067;49.296;14.470;2023-04-01T00:42:34;95460.43;;;12.26;41.06
47080;BME280;33067;49.296;14.470;2023-04-01T00:47:26;95458.25;;;12.24;41.34
47080;BME280;33067;49.296;14.470;2023-04-01T00:49:52;95457.22;;;12.29;41.17
47080;BME280;33067;49.296;14.470;2023-04-01T00:52:18;95457.21;;;12.20;40.83
47080;BME280;33067;49.296;14.470;2023-04-01T00:54:44;95455.64;;;11.98;41.22
47080;BME280;33067;49.296;14.470;2023-04-01T00:57:10;95453.07;;;12.02;41.08
47080;BME280;33067;49.296;14.470;2023-04-01T00:59:34;95448.78;;;11.92;40.90
47080;BME280;33067;49.296;14.470;2023-04-01T01:01:57;95448.18;;;12.14;40.75
47080;BME280;33067;49.296;14.470;2023-04-01T01:04:25;95447.79;;;12.24;40.44
47080;BME280;33067;49.296;14.470;2023-04-01T01:06:54;95446.46;;;12.00;40.74
47080;BME280;33067;49.296;14.470;2023-04-01T01:09:23;95448.03;;;12.14;40.87
47080;BME280;33067;49.296;14.470;2023-04-01T01:11:41;95450.19;;;12.24;40.74
47080;BME280;33067;49.296;14.470;2023-04-01T01:14:12;95449.41;;;12.27;40.99
47080;BME280;33067;49.296;14.470;2023-04-01T01:16:30;95451.66;;;12.07;40.55
47080;BME280;33067;49.296;14.470;2023-04-01T01:19:00;95454.38;;;12.32;40.56
47080;BME280;33067;49.296;14.470;2023-04-01T01:21:36;95455.32;;;12.39;40.54
47080;BME280;33067;49.296;14.470;2023-04-01T01:24:04;95458.51;;;12.14;40.65
47080;BME280;33067;49.296;14.470;2023-04-01T01:26:24;95463.22;;;11.99;40.23
47080;BME280;33067;49.296;14.470;2023-04-01T01:28:45;95464.18;;;11.02;40.26
47080;BME280;33067;49.296;14.470;2023-04-01T01:33:35;95460.45;;;12.49;39.56
47080;BME280;33067;49.296;14.470;2023-04-01T01:35:52;95462.59;;;12.19;40.30
47080;BME280;33067;49.296;14.470;2023-04-01T01:38:19;95462.61;;;12.25;40.49
47080;BME280;33067;49.296;14.470;2023-04-01T01:40:44;95466.89;;;11.91;41.36
47080;BME280;33067;49.296;14.470;2023-04-01T01:43:11;95469.70;;;11.56;41.63
47080;BME280;33067;49.296;14.470;2023-04-01T01:45:35;95471.14;;;11.63;42.00
47080;BME280;33067;49.296;14.470;2023-04-01T01:47:59;95470.46;;;11.67;41.85
47080;BME280;33067;49.296;14.470;2023-04-01T01:50:24;95471.42;;;11.61;42.05
47080;BME280;33067;49.296;14.470;2023-04-01T01:52:49;95473.12;;;11.39;42.44
47080;BME280;33067;49.296;14.470;2023-04-01T01:55:26;95472.77;;;11.53;42.60
47080;BME280;33067;49.296;14.470;2023-04-01T01:57:39;95474.87;;;11.68;42.73
47080;BME280;33067;49.296;14.470;2023-04-01T02:00:09;95477.80;;;11.73;42.67
47080;BME280;33067;49.296;14.470;2023-04-01T02:02:31;95475.24;;;11.72;42.76
47080;BME280;33067;49.296;14.470;2023-04-01T02:04:56;95476.68;;;11.82;42.71
47080;BME280;33067;49.296;14.470;2023-04-01T02:07:24;95475.67;;;11.89;42.44
47080;BME280;33067;49.296;14.470;2023-04-01T02:09:47;95477.76;;;11.87;42.67
47080;BME280;33067;49.296;14.470;2023-04-01T02:13:05;95474.83;;;12.31;42.25
47080;BME280;33067;49.296;14.470;2023-04-01T02:15:28;95477.16;;;12.05;42.51
47080;BME280;33067;49.296;14.470;2023-04-01T02:17:51;95476.93;;;11.67;43.10
47080;BME280;33067;49.296;14.470;2023-04-01T02:20:18;95475.03;;;11.80;42.99
47080;BME280;33067;49.296;14.470;2023-04-01T02:22:46;95473.82;;;11.76;42.78
47080;BME280;33067;49.296;14.470;2023-04-01T02:25:09;95478.54;;;11.56;43.28
47080;BME280;33067;49.296;14.470;2023-04-01T02:27:33;95480.15;;;11.54;43.41
47080;BME280;33067;49.296;14.470;2023-04-01T02:29:58;95482.69;;;11.50;43.14
47080;BME280;33067;49.296;14.470;2023-04-01T02:32:25;95481.83;;;11.31;43.62
47080;BME280;33067;49.296;14.470;2023-04-01T02:34:49;95486.99;;;11.79;43.77
47080;BME280;33067;49.296;14.470;2023-04-01T02:37:15;95486.17;;;11.59;43.68
47080;BME280;33067;49.296;14.470;2023-04-01T02:39:40;95484.94;;;11.39;43.43
47080;BME280;33067;49.296;14.470;2023-04-01T02:42:06;95491.71;;;11.30;43.52
47080;BME280;33067;49.296;14.470;2023-04-01T02:44:31;95489.86;;;11.28;43.91
47080;BME280;33067;49.296;14.470;2023-04-01T02:46:57;95491.76;;;11.62;43.50
47080;BME280;33067;49.296;14.470;2023-04-01T02:49:22;95486.74;;;11.46;43.41
47080;BME280;33067;49.296;14.470;2023-04-01T02:51:47;95492.90;;;11.54;43.39
47080;BME280;33067;49.296;14.470;2023-04-01T02:54:13;95489.79;;;11.44;43.28
47080;BME280;33067;49.296;14.470;2023-04-01T02:56:38;95492.79;;;11.78;42.70
47080;BME280;33067;49.296;14.470;2023-04-01T02:59:03;95496.52;;;11.55;42.55
47080;BME280;33067;49.296;14.470;2023-04-01T03:01:29;95494.68;;;11.57;42.35
47080;BME280;33067;49.296;14.470;2023-04-01T03:03:54;95496.96;;;11.75;42.53
47080;BME280;33067;49.296;14.470;2023-04-01T03:06:19;95497.29;;;11.50;42.05
47080;BME280;33067;49.296;14.470;2023-04-01T03:08:45;95499.55;;;11.41;42.40
47080;BME280;33067;49.296;14.470;2023-04-01T03:11:11;95497.86;;;11.18;42.63
47080;BME280;33067;49.296;14.470;2023-04-01T03:13:36;95499.24;;;11.20;42.94
47080;BME280;33067;49.296;14.470;2023-04-01T03:16:01;95498.66;;;10.90;43.11
47080;BME280;33067;49.296;14.470;2023-04-01T03:18:26;95501.74;;;11.52;42.88
47080;BME280;33067;49.296;14.470;2023-04-01T03:20:51;95501.96;;;11.37;42.63
47080;BME280;33067;49.296;14.470;2023-04-01T03:23:17;95500.61;;;11.39;43.06
47080;BME280;33067;49.296;14.470;2023-04-01T03:25:42;95502.17;;;11.42;42.54
47080;BME280;33067;49.296;14.470;2023-04-01T03:28:07;95503.19;;;11.20;42.65
47080;BME280;33067;49.296;14.470;2023-04-01T03:30:33;95505.18;;;11.47;42.54
47080;BME280;33067;49.296;14.470;2023-04-01T03:32:58;95505.63;;;11.73;42.47
47080;BME280;33067;49.296;14.470;2023-04-01T03:35:23;95508.68;;;11.36;42.86
47080;BME280;33067;49.296;14.470;2023-04-01T03:37:50;95507.68;;;11.10;43.01
47080;BME280;33067;49.296;14.470;2023-04-01T03:40:14;95509.42;;;11.53;43.18
47080;BME280;33067;49.296;14.470;2023-04-01T03:42:39;95512.91;;;11.31;43.23
47080;BME280;33067;49.296;14.470;2023-04-01T03:45:05;95512.41;;;11.21;42.95
47080;BME280;33067;49.296;14.470;2023-04-01T03:47:30;95512.89;;;11.69;43.03
47080;BME280;33067;49.296;14.470;2023-04-01T03:49:55;95513.00;;;11.40;42.48
47080;BME280;33067;49.296;14.470;2023-04-01T03:52:21;95515.36;;;11.39;42.51
47080;BME280;33067;49.296;14.470;2023-04-01T03:54:46;95516.25;;;11.46;42.25
47080;BME280;33067;49.296;14.470;2023-04-01T03:57:11;95520.08;;;11.75;42.23
47080;BME280;33067;49.296;14.470;2023-04-01T03:59:37;95517.55;;;11.58;42.15
47080;BME280;33067;49.296;14.470;2023-04-01T04:02:02;95521.04;;;11.57;42.15
47080;BME280;33067;49.296;14.470;2023-04-01T04:04:27;95524.61;;;11.50;42.07
47080;BME280;33067;49.296;14.470;2023-04-01T04:06:53;95522.63;;;11.50;42.33
47080;BME280;33067;49.296;14.470;2023-04-01T04:09:18;95524.59;;;11.71;42.52
47080;BME280;33067;49.296;14.470;2023-04-01T04:11:43;95527.50;;;11.48;42.36
47080;BME280;33067;49.296;14.470;2023-04-01T04:14:08;95528.13;;;11.65;42.35
47080;BME280;33067;49.296;14.470;2023-04-01T04:16:35;95530.95;;;11.75;42.29
47080;BME280;33067;49.296;14.470;2023-04-01T04:18:59;95532.21;;;11.51;42.13
47080;BME280;33067;49.296;14.470;2023-04-01T04:21:25;95534.05;;;12.04;42.05
47080;BME280;33067;49.296;14.470;2023-04-01T04:23:50;95534.82;;;11.68;42.33
47080;BME280;33067;49.296;14.470;2023-04-01T04:26:15;95539.18;;;11.50;42.23
47080;BME280;33067;49.296;14.470;2023-04-01T04:28:41;95542.06;;;11.49;42.41
47080;BME280;33067;49.296;14.470;2023-04-01T04:31:06;95541.60;;;11.66;42.00
47080;BME280;33067;49.296;14.470;2023-04-01T04:33:32;95541.58;;;11.45;42.25
47080;BME280;33067;49.296;14.470;2023-04-01T04:35:58;95540.46;;;11.43;42.24
47080;BME280;33067;49.296;14.470;2023-04-01T04:38:23;95540.14;;;11.12;42.67
47080;BME280;33067;49.296;14.470;2023-04-01T04:40:48;95541.65;;;11.18;42.62
47080;BME280;33067;49.296;14.470;2023-04-01T04:43:14;95542.95;;;11.32;42.46
47080;BME280;33067;49.296;14.470;2023-04-01T04:45:38;95543.94;;;11.80;42.40
47080;BME280;33067;49.296;14.470;2023-04-01T04:48:04;95546.00;;;11.29;42.49
47080;BME280;33067;49.296;14.470;2023-04-01T04:50:29;95549.36;;;11.52;42.56
47080;BME280;33067;49.296;14.470;2023-04-01T04:52:55;95547.44;;;11.35;42.45
47080;BME280;33067;49.296;14.470;2023-04-01T04:55:21;95546.75;;;11.25;42.65
47080;BME280;33067;49.296;14.470;2023-04-01T04:57:45;95547.03;;;11.44;42.29
47080;BME280;33067;49.296;14.470;2023-04-01T05:00:11;95546.43;;;11.30;42.50
47080;BME280;33067;49.296;14.470;2023-04-01T05:02:36;95546.68;;;11.36;42.54
47080;BME280;33067;49.296;14.470;2023-04-01T05:05:02;95547.36;;;11.35;42.54
47080;BME280;33067;49.296;14.470;2023-04-01T05:07:27;95547.83;;;11.46;42.28
47080;BME280;33067;49.296;14.470;2023-04-01T05:09:52;95550.34;;;11.59;42.12
47080;BME280;33067;49.296;14.470;2023-04-01T05:12:17;95554.05;;;11.56;42.25
47080;BME280;33067;49.296;14.470;2023-04-01T05:14:42;95559.91;;;11.58;42.39
47080;BME280;33067;49.296;14.470;2023-04-01T05:17:09;95561.29;;;11.51;42.43
47080;BME280;33067;49.296;14.470;2023-04-01T05:19:33;95561.04;;;11.62;42.36
47080;BME280;33067;49.296;14.470;2023-04-01T05:21:58;95563.41;;;11.71;42.33
47080;BME280;33067;49.296;14.470;2023-04-01T05:24:24;95565.87;;;11.81;41.89
47080;BME280;33067;49.296;14.470;2023-04-01T05:26:49;95569.36;;;11.61;42.28
47080;BME280;33067;49.296;14.470;2023-04-01T05:29:14;95570.22;;;11.75;41.80
47080;BME280;33067;49.296;14.470;2023-04-01T05:31:40;95570.09;;;11.62;41.91
47080;BME280;33067;49.296;14.470;2023-04-01T05:34:05;95567.58;;;11.62;41.61
47080;BME280;33067;49.296;14.470;2023-04-01T05:36:31;95566.54;;;10.85;41.96
47080;BME280;33067;49.296;14.470;2023-04-01T05:38:56;95569.53;;;11.72;41.63
47080;BME280;33067;49.296;14.470;2023-04-01T05:41:22;95569.56;;;11.91;41.76
47080;BME280;33067;49.296;14.470;2023-04-01T05:43:47;95564.78;;;11.83;41.52
47080;BME280;33067;49.296;14.470;2023-04-01T05:46:13;95560.37;;;11.85;41.48
47080;BME280;33067;49.296;14.470;2023-04-01T05:48:38;95566.04;;;11.81;42.32
47080;BME280;33067;49.296;14.470;2023-04-01T05:51:04;95567.05;;;11.72;42.55
47080;BME280;33067;49.296;14.470;2023-04-01T05:53:29;95570.57;;;11.94;42.21
47080;BME280;33067;49.296;14.470;2023-04-01T05:55:54;95571.08;;;11.95;42.18
47080;BME280;33067;49.296;14.470;2023-04-01T05:58:19;95573.13;;;11.88;42.35
47080;BME280;33067;49.296;14.470;2023-04-01T06:00:44;95568.62;;;12.00;42.22
47080;BME280;33067;49.296;14.470;2023-04-01T06:03:10;95571.86;;;11.72;42.34
47080;BME280;33067;49.296;14.470;2023-04-01T06:05:39;95572.32;;;12.02;42.06
47080;BME280;33067;49.296;14.470;2023-04-01T06:08:05;95573.08;;;11.80;41.99
47080;BME280;33067;49.296;14.470;2023-04-01T06:10:35;95565.83;;;11.87;41.76
47080;BME280;33067;49.296;14.470;2023-04-01T06:12:57;95564.57;;;12.10;41.69
47080;BME280;33067;49.296;14.470;2023-04-01T06:15:25;95566.61;;;11.97;41.94
47080;BME280;33067;49.296;14.470;2023-04-01T06:17:59;95569.13;;;11.81;42.25
47080;BME280;33067;49.296;14.470;2023-04-01T06:20:14;95568.20;;;12.13;41.59
47080;BME280;33067;49.296;14.470;2023-04-01T06:22:48;95574.96;;;11.93;41.80
47080;BME280;33067;49.296;14.470;2023-04-01T06:25:14;95574.77;;;11.86;42.07
47080;BME280;33067;49.296;14.470;2023-04-01T06:27:33;95577.65;;;11.86;42.38
47080;BME280;33067;49.296;14.470;2023-04-01T06:29:55;95576.57;;;11.97;42.34
47080;BME280;33067;49.296;14.470;2023-04-01T06:32:24;95576.30;;;12.19;41.99
47080;BME280;33067;49.296;14.470;2023-04-01T06:34:54;95575.94;;;12.29;41.65
47080;BME280;33067;49.296;14.470;2023-04-01T06:37:15;95578.51;;;12.08;41.81
47080;BME280;33067;49.296;14.470;2023-04-01T06:39:40;95578.31;;;11.86;42.34
47080;BME280;33067;49.296;14.470;2023-04-01T06:42:07;95575.37;;;12.40;41.99
47080;BME280;33067;49.296;14.470;2023-04-01T06:44:26;95575.54;;;12.35;41.90
47080;BME280;33067;49.296;14.470;2023-04-01T06:46:48;95575.37;;;12.34;41.98
47080;BME280;33067;49.296;14.470;2023-04-01T06:49:29;95573.07;;;12.53;41.61
47080;BME280;33067;49.296;14.470;2023-04-01T06:51:43;95577.00;;;12.68;40.60
47080;BME280;33067;49.296;14.470;2023-04-01T06:54:05;95580.75;;;13.19;39.76
47080;BME280;33067;49.296;14.470;2023-04-01T06:56:29;95580.15;;;13.04;39.00
47080;BME280;33067;49.296;14.470;2023-04-01T06:58:55;95579.81;;;13.08;40.29
47080;BME280;33067;49.296;14.470;2023-04-01T07:01:21;95583.49;;;13.27;39.99
47080;BME280;33067;49.296;14.470;2023-04-01T07:03:47;95578.67;;;13.92;38.56
47080;BME280;33067;49.296;14.470;2023-04-01T07:06:12;95581.14;;;13.59;39.45
47080;BME280;33067;49.296;14.470;2023-04-01T07:08:37;95572.87;;;13.65;38.30
47080;BME280;33067;49.296;14.470;2023-04-01T07:11:01;95574.20;;;13.14;38.48
47080;BME280;33067;49.296;14.470;2023-04-01T07:13:27;95563.82;;;13.89;38.50
47080;BME280;33067;49.296;14.470;2023-04-01T07:15:57;95568.56;;;13.54;37.41
47080;BME280;33067;49.296;14.470;2023-04-01T07:18:16;95566.33;;;13.42;38.39
47080;BME280;33067;49.296;14.470;2023-04-01T07:20:39;95575.48;;;13.39;37.67
47080;BME280;33067;49.296;14.470;2023-04-01T07:23:07;95572.38;;;13.08;37.63
47080;BME280;33067;49.296;14.470;2023-04-01T07:25:33;95571.61;;;13.67;36.84
47080;BME280;33067;49.296;14.470;2023-04-01T07:27:59;95573.49;;;14.35;36.40
47080;BME280;33067;49.296;14.470;2023-04-01T07:30:22;95578.94;;;13.51;36.28
47080;BME280;33067;49.296;14.470;2023-04-01T07:32:49;95580.08;;;13.82;35.74
47080;BME280;33067;49.296;14.470;2023-04-01T07:35:20;95584.99;;;13.69;36.61
47080;BME280;33067;49.296;14.470;2023-04-01T07:37:42;95586.32;;;13.60;36.02
47080;BME280;33067;49.296;14.470;2023-04-01T07:40:11;95582.81;;;13.81;36.12
47080;BME280;33067;49.296;14.470;2023-04-01T07:42:35;95582.72;;;12.86;36.88
47080;BME280;33067;49.296;14.470;2023-04-01T07:44:59;95585.26;;;13.33;36.46
47080;BME280;33067;49.296;14.470;2023-04-01T07:47:28;95586.43;;;13.77;36.11
47080;BME280;33067;49.296;14.470;2023-04-01T07:49:51;95585.89;;;14.55;35.41
47080;BME280;33067;49.296;14.470;2023-04-01T07:52:12;95590.56;;;13.67;36.05
47080;BME280;33067;49.296;14.470;2023-04-01T07:54:40;95586.65;;;13.89;35.42
47080;BME280;33067;49.296;14.470;2023-04-01T07:57:02;95597.35;;;13.07;37.07
47080;BME280;33067;49.296;14.470;2023-04-01T07:59:29;95602.30;;;13.52;36.73
47080;BME280;33067;49.296;14.470;2023-04-01T08:01:54;95603.25;;;13.53;35.76
47080;BME280;33067;49.296;14.470;2023-04-01T08:04:23;95599.74;;;13.46;36.30
47080;BME280;33067;49.296;14.470;2023-04-01T08:06:45;95597.94;;;13.51;36.54
47080;BME280;33067;49.296;14.470;2023-04-01T08:09:12;95601.85;;;13.51;36.50
47080;BME280;33067;49.296;14.470;2023-04-01T08:11:43;95600.14;;;13.18;37.02
47080;BME280;33067;49.296;14.470;2023-04-01T08:14:05;95598.87;;;13.81;36.67
47080;BME280;33067;49.296;14.470;2023-04-01T08:16:26;95606.34;;;13.47;36.53
47080;BME280;33067;49.296;14.470;2023-04-01T08:18:56;95601.57;;;13.58;36.60
47080;BME280;33067;49.296;14.470;2023-04-01T08:21:15;95598.84;;;14.25;34.82
47080;BME280;33067;49.296;14.470;2023-04-01T08:23:43;95608.01;;;13.74;35.74
47080;BME280;33067;49.296;14.470;2023-04-01T08:26:06;95607.41;;;13.24;36.52
47080;BME280;33067;49.296;14.470;2023-04-01T08:28:33;95608.68;;;13.44;36.63
47080;BME280;33067;49.296;14.470;2023-04-01T08:30:58;95608.10;;;13.43;35.93
47080;BME280;33067;49.296;14.470;2023-04-01T08:33:23;95610.55;;;13.30;36.02
47080;BME280;33067;49.296;14.470;2023-04-01T08:35:49;95609.62;;;13.05;35.61
47080;BME280;33067;49.296;14.470;2023-04-01T08:38:14;95607.36;;;13.08;36.43
47080;BME280;33067;49.296;14.470;2023-04-01T08:43:09;95612.09;;;13.38;36.56
47080;BME280;33067;49.296;14.470;2023-04-01T08:48:17;95614.38;;;12.58;37.40
47080;BME280;33067;49.296;14.470;2023-04-01T08:50:27;95608.89;;;12.20;37.56
47080;BME280;33067;49.296;14.470;2023-04-01T08:52:47;95614.07;;;12.19;38.20
47080;BME280;33067;49.296;14.470;2023-04-01T08:55:28;95608.10;;;12.34;38.18
47080;BME280;33067;49.296;14.470;2023-04-01T08:57:42;95609.85;;;12.95;37.39
47080;BME280;33067;49.296;14.470;2023-04-01T09:00:10;95610.74;;;13.15;37.49
47080;BME280;33067;49.296;14.470;2023-04-01T09:05:02;95607.50;;;12.79;37.08
47080;BME280;33067;49.296;14.470;2023-04-01T09:07:27;95615.92;;;12.54;37.47
47080;BME280;33067;49.296;14.470;2023-04-01T09:09:53;95617.85;;;13.03;36.94
47080;BME280;33067;49.296;14.470;2023-04-01T09:12:22;95617.05;;;12.98;36.50
47080;BME280;33067;49.296;14.470;2023-04-01T09:17:09;95620.77;;;12.93;36.32
47080;BME280;33067;49.296;14.470;2023-04-01T09:19:26;95625.62;;;13.25;36.51
47080;BME280;33067;49.296;14.470;2023-04-01T09:21:57;95625.68;;;13.37;36.55
47080;BME280;33067;49.296;14.470;2023-04-01T09:24:24;95622.53;;;13.24;36.39
47080;BME280;33067;49.296;14.470;2023-04-01T09:26:48;95618.29;;;12.62;37.20
47080;BME280;33067;49.296;14.470;2023-04-01T09:29:10;95615.86;;;12.55;36.73
47080;BME280;33067;49.296;14.470;2023-04-01T09:34:05;95614.61;;;12.50;37.10
47080;BME280;33067;49.296;14.470;2023-04-01T09:36:30;95619.98;;;12.92;36.84
47080;BME280;33067;49.296;14.470;2023-04-01T09:38:54;95618.75;;;12.70;36.52
47080;BME280;33067;49.296;14.470;2023-04-01T09:41:15;95614.57;;;12.38;37.08
47080;BME280;33067;49.296;14.470;2023-04-01T09:43:46;95620.60;;;12.56;36.59
47080;BME280;33067;49.296;14.470;2023-04-01T09:46:11;95619.30;;;13.27;35.58
47080;BME280;33067;49.296;14.470;2023-04-01T09:48:37;95620.44;;;12.52;37.16
47080;BME280;33067;49.296;14.470;2023-04-01T09:50:56;95625.68;;;12.01;37.87
47080;BME280;33067;49.296;14.470;2023-04-01T09:53:25;95631.83;;;11.52;39.07
47080;BME280;33067;49.296;14.470;2023-04-01T09:58:25;95626.84;;;12.54;38.33
47080;BME280;33067;49.296;14.470;2023-04-01T10:00:44;95619.10;;;13.24;37.61
47080;BME280;33067;49.296;14.470;2023-04-01T10:05:35;95619.58;;;12.39;37.68
47080;BME280;33067;49.296;14.470;2023-04-01T10:10:30;95621.38;;;12.99;35.38
47080;BME280;33067;49.296;14.470;2023-04-01T10:12:50;95613.48;;;13.58;34.69
47080;BME280;33067;49.296;14.470;2023-04-01T10:17:44;95615.28;;;12.84;35.62
47080;BME280;33067;49.296;14.470;2023-04-01T10:20:02;95617.09;;;13.29;34.92
47080;BME280;33067;49.296;14.470;2023-04-01T10:22:34;95619.52;;;13.67;35.21
47080;BME280;33067;49.296;14.470;2023-04-01T10:25:04;95615.87;;;14.21;34.01
47080;BME280;33067;49.296;14.470;2023-04-01T10:27:16;95616.61;;;13.82;34.22
47080;BME280;33067;49.296;14.470;2023-04-01T10:34:41;95620.92;;;13.76;34.20
47080;BME280;33067;49.296;14.470;2023-04-01T10:36:52;95615.61;;;13.75;34.73
47080;BME280;33067;49.296;14.470;2023-04-01T10:39:33;95620.35;;;13.26;34.60
47080;BME280;33067;49.296;14.470;2023-04-01T10:56:32;95621.15;;;13.29;35.08
47080;BME280;33067;49.296;14.470;2023-04-01T10:58:55;95615.36;;;12.65;35.51
47080;BME280;33067;49.296;14.470;2023-04-01T11:18:22;95614.87;;;12.91;34.98
47080;BME280;33067;49.296;14.470;2023-04-01T11:20:42;95617.73;;;13.37;34.68
47080;BME280;33067;49.296;14.470;2023-04-01T11:23:00;95609.25;;;13.91;33.09
47080;BME280;33067;49.296;14.470;2023-04-01T11:25:25;95604.94;;;13.41;33.81
47080;BME280;33067;49.296;14.470;2023-04-01T11:27:54;95604.75;;;13.13;34.04
47080;BME280;33067;49.296;14.470;2023-04-01T11:30:17;95607.82;;;13.62;33.46
47080;BME280;33067;49.296;14.470;2023-04-01T11:32:43;95608.98;;;13.02;33.58
47080;BME280;33067;49.296;14.470;2023-04-01T11:35:15;95604.36;;;13.79;33.47
47080;BME280;33067;49.296;14.470;2023-04-01T11:37:33;95606.86;;;13.63;33.69
47080;BME280;33067;49.296;14.470;2023-04-01T11:39:59;95603.12;;;13.92;32.97
47080;BME280;33067;49.296;14.470;2023-04-01T11:42:23;95603.46;;;13.04;33.13
47080;BME280;33067;49.296;14.470;2023-04-01T11:44:47;95603.04;;;13.60;32.95
47080;BME280;33067;49.296;14.470;2023-04-01T11:47:20;95609.54;;;13.70;33.27
47080;BME280;33067;49.296;14.470;2023-04-01T11:49:46;95605.07;;;13.58;32.95
47080;BME280;33067;49.296;14.470;2023-04-01T11:52:09;95607.40;;;13.75;33.04
47080;BME280;33067;49.296;14.470;2023-04-01T11:54:33;95607.56;;;13.88;32.86
47080;BME280;33067;49.296;14.470;2023-04-01T11:56:58;95603.90;;;13.61;32.96
47080;BME280;33067;49.296;14.470;2023-04-01T12:01:48;95605.24;;;14.19;32.40
47080;BME280;33067;49.296;14.470;2023-04-01T12:04:23;95605.86;;;14.52;32.49
47080;BME280;33067;49.296;14.470;2023-04-01T12:06:35;95608.99;;;14.41;32.85
47080;BME280;33067;49.296;14.470;2023-04-01T12:09:01;95610.21;;;14.67;32.40
47080;BME280;33067;49.296;14.470;2023-04-01T12:11:22;95609.78;;;14.74;32.32
47080;BME280;33067;49.296;14.470;2023-04-01T12:13:51;95612.24;;;15.25;32.04
47080;BME280;33067;49.296;14.470;2023-04-01T12:16:23;95610.27;;;15.52;31.70
47080;BME280;33067;49.296;14.470;2023-04-01T12:18:38;95605.37;;;15.50;31.37
47080;BME280;33067;49.296;14.470;2023-04-01T12:21:05;95603.11;;;15.60;31.16
47080;BME280;33067;49.296;14.470;2023-04-01T12:23:37;95601.77;;;15.61;31.19
47080;BME280;33067;49.296;14.470;2023-04-01T12:26:00;95598.35;;;15.74;31.28
47080;BME280;33067;49.296;14.470;2023-04-01T12:28:21;95599.92;;;15.40;31.47
47080;BME280;33067;49.296;14.470;2023-04-01T12:30:48;95594.64;;;15.89;30.81
47080;BME280;33067;49.296;14.470;2023-04-01T12:33:18;95593.90;;;14.89;32.03
47080;BME280;33067;49.296;14.470;2023-04-01T12:35:42;95588.24;;;14.71;32.37
47080;BME280;33067;49.296;14.470;2023-04-01T12:38:08;95583.51;;;13.93;33.12
47080;BME280;33067;49.296;14.470;2023-04-01T12:40:36;95581.44;;;13.72;33.30
47080;BME280;33067;49.296;14.470;2023-04-01T12:42:58;95582.68;;;14.43;32.50
47080;BME280;33067;49.296;14.470;2023-04-01T12:45:28;95582.91;;;15.16;31.70
47080;BME280;33067;49.296;14.470;2023-04-01T12:50:19;95579.92;;;15.37;31.91
47080;BME280;33067;49.296;14.470;2023-04-01T12:52:39;95576.94;;;14.90;32.72
47080;BME280;33067;49.296;14.470;2023-04-01T12:57:31;95573.19;;;16.23;31.02
47080;BME280;33067;49.296;14.470;2023-04-01T12:59:54;95572.25;;;15.26;31.68
47080;BME280;33067;49.296;14.470;2023-04-01T13:02:18;95572.17;;;16.01;31.53
47080;BME280;33067;49.296;14.470;2023-04-01T13:04:51;95572.65;;;16.01;31.54
47080;BME280;33067;49.296;14.470;2023-04-01T13:09:36;95569.01;;;15.49;32.02
47080;BME280;33067;49.296;14.470;2023-04-01T13:12:03;95569.31;;;14.86;32.44
47080;BME280;33067;49.296;14.470;2023-04-01T13:14:27;95569.70;;;15.67;31.70
47080;BME280;33067;49.296;14.470;2023-04-01T13:16:47;95575.97;;;14.86;32.29
47080;BME280;33067;49.296;14.470;2023-04-01T13:19:11;95567.38;;;15.68;31.63
47080;BME280;33067;49.296;14.470;2023-04-01T13:21:40;95566.95;;;15.77;31.69
47080;BME280;33067;49.296;14.470;2023-04-01T13:24:04;95570.79;;;15.46;32.50
47080;BME280;33067;49.296;14.470;2023-04-01T13:26:27;95571.74;;;15.32;31.86
47080;BME280;33067;49.296;14.470;2023-04-01T13:28:52;95569.64;;;15.57;31.78
47080;BME280;33067;49.296;14.470;2023-04-01T13:31:24;95576.24;;;15.09;32.57
47080;BME280;33067;49.296;14.470;2023-04-01T13:33:44;95574.95;;;15.39;32.34
47080;BME280;33067;49.296;14.470;2023-04-01T13:36:14;95574.38;;;15.42;32.24
47080;BME280;33067;49.296;14.470;2023-04-01T13:38:40;95573.54;;;15.55;31.88
47080;BME280;33067;49.296;14.470;2023-04-01T13:41:01;95578.12;;;15.55;31.99
47080;BME280;33067;49.296;14.470;2023-04-01T13:43:23;95571.54;;;15.66;31.81
47080;BME280;33067;49.296;14.470;2023-04-01T13:50:47;95578.76;;;15.63;32.03
47080;BME280;33067;49.296;14.470;2023-04-01T13:53:11;95579.37;;;15.69;31.66
47080;BME280;33067;49.296;14.470;2023-04-01T13:55:39;95581.27;;;15.50;31.81
47080;BME280;33067;49.296;14.470;2023-04-01T13:58:04;95580.39;;;16.46;31.23